sensor_id;sensor_type;location;lat;lon;timestamp;temperature;humidity
76789;DHT22;65740;52.464;13.446;2023-04-25T00:00:21;20.80;45.10
76789;DHT22;65740;52.464;13.446;2023-04-25T00:02:47;20.70;45.00
76789;DHT22;65740;52.464;13.446;2023-04-25T00:05:12;20.70;45.00
76789;DHT22;65740;52.464;13.446;2023-04-25T00:07:40;20.70;45.00
76789;DHT22;65740;52.464;13.446;2023-04-25T00:10:08;20.70;45.00
76789;DHT22;65740;52.464;13.446;2023-04-25T00:12:34;20.70;45.00
76789;DHT22;65740;52.464;13.446;2023-04-25T00:15:01;20.70;44.90
76789;DHT22;65740;52.464;13.446;2023-04-25T00:17:27;20.70;44.80
76789;DHT22;65740;52.464;13.446;2023-04-25T00:19:53;20.70;44.80
76789;DHT22;65740;52.464;13.446;2023-04-25T00:22:18;20.70;44.80
76789;DHT22;65740;52.464;13.446;2023-04-25T00:24:44;20.70;44.70
76789;DHT22;65740;52.464;13.446;2023-04-25T00:27:10;20.70;44.70
76789;DHT22;65740;52.464;13.446;2023-04-25T00:29:36;20.70;44.60
76789;DHT22;65740;52.464;13.446;2023-04-25T00:32:01;20.70;44.50
76789;DHT22;65740;52.464;13.446;2023-04-25T00:34:27;20.70;44.50
76789;DHT22;65740;52.464;13.446;2023-04-25T00:36:53;20.70;44.40
76789;DHT22;65740;52.464;13.446;2023-04-25T00:39:18;20.70;44.50
76789;DHT22;65740;52.464;13.446;2023-04-25T00:41:45;20.70;44.40
76789;DHT22;65740;52.464;13.446;2023-04-25T00:44:11;20.70;44.40
76789;DHT22;65740;52.464;13.446;2023-04-25T00:46:38;20.70;44.30
76789;DHT22;65740;52.464;13.446;2023-04-25T00:49:04;20.70;44.30
76789;DHT22;65740;52.464;13.446;2023-04-25T00:51:30;20.70;44.20
76789;DHT22;65740;52.464;13.446;2023-04-25T00:53:58;20.70;44.20
76789;DHT22;65740;52.464;13.446;2023-04-25T00:56:24;20.70;44.30
76789;DHT22;65740;52.464;13.446;2023-04-25T00:58:53;20.70;44.20
76789;DHT22;65740;52.464;13.446;2023-04-25T01:01:22;20.70;44.20
76789;DHT22;65740;52.464;13.446;2023-04-25T01:03:49;20.70;44.20
76789;DHT22;65740;52.464;13.446;2023-04-25T01:06:16;20.60;44.20
76789;DHT22;65740;52.464;13.446;2023-04-25T01:08:41;20.70;44.30
76789;DHT22;65740;52.464;13.446;2023-04-25T01:11:07;20.60;44.20
76789;DHT22;65740;52.464;13.446;2023-04-25T01:13:34;20.60;44.20
76789;DHT22;65740;52.464;13.446;2023-04-25T01:16:00;20.60;44.10
76789;DHT22;65740;52.464;13.446;2023-04-25T01:18:25;20.60;44.30
76789;DHT22;65740;52.464;13.446;2023-04-25T01:20:52;20.50;44.10
76789;DHT22;65740;52.464;13.446;2023-04-25T01:23:22;20.50;44.10
76789;DHT22;65740;52.464;13.446;2023-04-25T01:25:49;20.50;44.20
76789;DHT22;65740;52.464;13.446;2023-04-25T01:28:15;20.50;44.20
76789;DHT22;65740;52.464;13.446;2023-04-25T01:30:41;20.50;44.20
76789;DHT22;65740;52.464;13.446;2023-04-25T01:33:08;20.50;44.10
76789;DHT22;65740;52.464;13.446;2023-04-25T01:35:33;20.40;44.10
76789;DHT22;65740;52.464;13.446;2023-04-25T01:37:59;20.40;44.10
76789;DHT22;65740;52.464;13.446;2023-04-25T01:40:25;20.40;44.00
76789;DHT22;65740;52.464;13.446;2023-04-25T01:42:52;20.40;44.10
76789;DHT22;65740;52.464;13.446;2023-04-25T01:45:18;20.40;44.00
76789;DHT22;65740;52.464;13.446;2023-04-25T01:47:44;20.40;44.00
76789;DHT22;65740;52.464;13.446;2023-04-25T01:50:14;20.40;44.10
76789;DHT22;65740;52.464;13.446;2023-04-25T01:52:40;20.30;44.00
76789;DHT22;65740;52.464;13.446;2023-04-25T01:55:06;20.40;44.10
76789;DHT22;65740;52.464;13.446;2023-04-25T01:57:32;20.30;43.90
76789;DHT22;65740;52.464;13.446;2023-04-25T02:00:00;20.30;43.80
76789;DHT22;65740;52.464;13.446;2023-04-25T02:02:26;20.30;43.80
76789;DHT22;65740;52.464;13.446;2023-04-25T02:04:52;20.30;43.80
76789;DHT22;65740;52.464;13.446;2023-04-25T02:07:17;20.30;44.10
76789;DHT22;65740;52.464;13.446;2023-04-25T02:09:43;20.30;43.70
76789;DHT22;65740;52.464;13.446;2023-04-25T02:12:10;20.40;43.80
76789;DHT22;65740;52.464;13.446;2023-04-25T02:14:35;20.40;43.70
76789;DHT22;65740;52.464;13.446;2023-04-25T02:17:01;20.40;43.80
76789;DHT22;65740;52.464;13.446;2023-04-25T02:19:27;20.30;43.60
76789;DHT22;65740;52.464;13.446;2023-04-25T02:21:52;20.40;43.70
76789;DHT22;65740;52.464;13.446;2023-04-25T02:24:18;20.40;43.60
76789;DHT22;65740;52.464;13.446;2023-04-25T02:26:43;20.40;43.60
76789;DHT22;65740;52.464;13.446;2023-04-25T02:29:10;20.40;43.50
76789;DHT22;65740;52.464;13.446;2023-04-25T02:31:35;20.40;43.50
76789;DHT22;65740;52.464;13.446;2023-04-25T02:34:01;20.40;43.50
76789;DHT22;65740;52.464;13.446;2023-04-25T02:36:27;20.40;43.40
76789;DHT22;65740;52.464;13.446;2023-04-25T02:38:53;20.40;43.50
76789;DHT22;65740;52.464;13.446;2023-04-25T02:41:18;20.40;43.50
76789;DHT22;65740;52.464;13.446;2023-04-25T02:43:44;20.40;43.40
76789;DHT22;65740;52.464;13.446;2023-04-25T02:46:09;20.40;43.50
76789;DHT22;65740;52.464;13.446;2023-04-25T02:48:35;20.30;43.40
76789;DHT22;65740;52.464;13.446;2023-04-25T02:51:01;20.30;44.00
76789;DHT22;65740;52.464;13.446;2023-04-25T02:53:26;20.30;43.40
76789;DHT22;65740;52.464;13.446;2023-04-25T02:55:52;20.30;43.40
76789;DHT22;65740;52.464;13.446;2023-04-25T02:58:18;20.30;43.40
76789;DHT22;65740;52.464;13.446;2023-04-25T03:00:43;20.30;43.40
76789;DHT22;65740;52.464;13.446;2023-04-25T03:03:10;20.30;43.50
76789;DHT22;65740;52.464;13.446;2023-04-25T03:05:36;20.20;43.50
76789;DHT22;65740;52.464;13.446;2023-04-25T03:08:01;20.20;43.50
76789;DHT22;65740;52.464;13.446;2023-04-25T03:10:28;20.20;43.50
76789;DHT22;65740;52.464;13.446;2023-04-25T03:12:53;20.20;43.50
76789;DHT22;65740;52.464;13.446;2023-04-25T03:15:19;20.20;43.50
76789;DHT22;65740;52.464;13.446;2023-04-25T03:17:45;20.20;43.50
76789;DHT22;65740;52.464;13.446;2023-04-25T03:20:11;20.20;43.50
76789;DHT22;65740;52.464;13.446;2023-04-25T03:22:37;20.10;43.40
76789;DHT22;65740;52.464;13.446;2023-04-25T03:25:03;20.10;43.40
76789;DHT22;65740;52.464;13.446;2023-04-25T03:27:29;20.10;43.40
76789;DHT22;65740;52.464;13.446;2023-04-25T03:29:54;20.10;43.30
76789;DHT22;65740;52.464;13.446;2023-04-25T03:32:20;20.10;43.30
76789;DHT22;65740;52.464;13.446;2023-04-25T03:34:46;20.10;43.30
76789;DHT22;65740;52.464;13.446;2023-04-25T03:37:11;20.10;43.30
76789;DHT22;65740;52.464;13.446;2023-04-25T03:39:37;20.10;43.20
76789;DHT22;65740;52.464;13.446;2023-04-25T03:42:03;20.10;43.20
76789;DHT22;65740;52.464;13.446;2023-04-25T03:44:29;20.10;43.20
76789;DHT22;65740;52.464;13.446;2023-04-25T03:46:55;20.10;43.20
76789;DHT22;65740;52.464;13.446;2023-04-25T03:49:20;20.20;43.30
76789;DHT22;65740;52.464;13.446;2023-04-25T03:51:46;20.10;43.20
76789;DHT22;65740;52.464;13.446;2023-04-25T03:54:11;20.10;43.20
76789;DHT22;65740;52.464;13.446;2023-04-25T03:56:37;20.10;43.20
76789;DHT22;65740;52.464;13.446;2023-04-25T03:59:02;20.10;43.10
76789;DHT22;65740;52.464;13.446;2023-04-25T04:01:28;20.10;43.10
76789;DHT22;65740;52.464;13.446;2023-04-25T04:03:54;20.10;43.10
76789;DHT22;65740;52.464;13.446;2023-04-25T04:06:20;20.10;43.10
76789;DHT22;65740;52.464;13.446;2023-04-25T04:08:46;20.10;43.10
76789;DHT22;65740;52.464;13.446;2023-04-25T04:11:12;20.10;43.10
76789;DHT22;65740;52.464;13.446;2023-04-25T04:13:37;20.10;43.00
76789;DHT22;65740;52.464;13.446;2023-04-25T04:16:03;20.10;43.10
76789;DHT22;65740;52.464;13.446;2023-04-25T04:18:29;20.10;43.10
76789;DHT22;65740;52.464;13.446;2023-04-25T04:20:55;20.10;43.10
76789;DHT22;65740;52.464;13.446;2023-04-25T04:23:23;20.10;43.10
76789;DHT22;65740;52.464;13.446;2023-04-25T04:25:49;20.10;43.10
76789;DHT22;65740;52.464;13.446;2023-04-25T04:28:14;20.00;43.00
76789;DHT22;65740;52.464;13.446;2023-04-25T04:30:41;20.00;43.00
76789;DHT22;65740;52.464;13.446;2023-04-25T04:33:08;20.00;43.00
76789;DHT22;65740;52.464;13.446;2023-04-25T04:35:34;20.00;43.10
76789;DHT22;65740;52.464;13.446;2023-04-25T04:37:59;20.00;43.00
76789;DHT22;65740;52.464;13.446;2023-04-25T04:40:25;20.00;43.00
76789;DHT22;65740;52.464;13.446;2023-04-25T04:42:51;20.00;43.00
76789;DHT22;65740;52.464;13.446;2023-04-25T04:45:18;20.00;43.00
76789;DHT22;65740;52.464;13.446;2023-04-25T04:47:44;20.00;43.00
76789;DHT22;65740;52.464;13.446;2023-04-25T04:50:10;20.00;43.00
76789;DHT22;65740;52.464;13.446;2023-04-25T04:52:38;20.00;42.90
76789;DHT22;65740;52.464;13.446;2023-04-25T04:55:05;20.00;42.90
76789;DHT22;65740;52.464;13.446;2023-04-25T04:57:33;20.00;42.90
76789;DHT22;65740;52.464;13.446;2023-04-25T05:00:00;20.00;42.90
76789;DHT22;65740;52.464;13.446;2023-04-25T05:02:26;20.00;42.90
76789;DHT22;65740;52.464;13.446;2023-04-25T05:04:52;20.00;42.90
76789;DHT22;65740;52.464;13.446;2023-04-25T05:07:18;20.00;42.90
76789;DHT22;65740;52.464;13.446;2023-04-25T05:09:44;20.00;42.90
76789;DHT22;65740;52.464;13.446;2023-04-25T05:12:10;20.00;42.90
76789;DHT22;65740;52.464;13.446;2023-04-25T05:14:35;20.00;42.90
76789;DHT22;65740;52.464;13.446;2023-04-25T05:17:01;20.00;42.90
76789;DHT22;65740;52.464;13.446;2023-04-25T05:19:29;20.00;42.90
76789;DHT22;65740;52.464;13.446;2023-04-25T05:21:54;20.00;42.90
76789;DHT22;65740;52.464;13.446;2023-04-25T05:24:20;20.00;42.90
76789;DHT22;65740;52.464;13.446;2023-04-25T05:26:46;20.00;42.90
76789;DHT22;65740;52.464;13.446;2023-04-25T05:29:11;20.00;42.90
76789;DHT22;65740;52.464;13.446;2023-04-25T05:31:37;20.00;43.70
76789;DHT22;65740;52.464;13.446;2023-04-25T05:34:02;20.00;42.90
76789;DHT22;65740;52.464;13.446;2023-04-25T05:36:28;19.90;42.80
76789;DHT22;65740;52.464;13.446;2023-04-25T05:38:54;20.00;42.90
76789;DHT22;65740;52.464;13.446;2023-04-25T05:41:19;19.90;42.90
76789;DHT22;65740;52.464;13.446;2023-04-25T05:43:45;19.90;42.90
76789;DHT22;65740;52.464;13.446;2023-04-25T05:46:14;19.90;42.90
76789;DHT22;65740;52.464;13.446;2023-04-25T05:48:39;19.90;42.90
76789;DHT22;65740;52.464;13.446;2023-04-25T05:51:05;19.90;42.90
76789;DHT22;65740;52.464;13.446;2023-04-25T05:53:31;19.90;43.00
76789;DHT22;65740;52.464;13.446;2023-04-25T05:55:56;19.90;43.00
76789;DHT22;65740;52.464;13.446;2023-04-25T05:58:22;19.90;43.00
76789;DHT22;65740;52.464;13.446;2023-04-25T06:00:48;19.90;43.00
76789;DHT22;65740;52.464;13.446;2023-04-25T06:03:13;19.90;43.00
76789;DHT22;65740;52.464;13.446;2023-04-25T06:05:42;19.90;43.00
76789;DHT22;65740;52.464;13.446;2023-04-25T06:08:09;19.90;43.10
76789;DHT22;65740;52.464;13.446;2023-04-25T06:10:35;19.80;43.00
76789;DHT22;65740;52.464;13.446;2023-04-25T06:13:01;19.80;43.00
76789;DHT22;65740;52.464;13.446;2023-04-25T06:15:26;19.80;43.00
76789;DHT22;65740;52.464;13.446;2023-04-25T06:17:52;19.80;43.00
76789;DHT22;65740;52.464;13.446;2023-04-25T06:20:18;19.80;43.00
76789;DHT22;65740;52.464;13.446;2023-04-25T06:22:48;19.80;43.00
76789;DHT22;65740;52.464;13.446;2023-04-25T06:25:14;19.80;43.00
76789;DHT22;65740;52.464;13.446;2023-04-25T06:27:39;19.80;43.00
76789;DHT22;65740;52.464;13.446;2023-04-25T06:30:06;19.80;43.00
76789;DHT22;65740;52.464;13.446;2023-04-25T06:32:31;19.80;43.00
76789;DHT22;65740;52.464;13.446;2023-04-25T06:34:57;19.90;43.00
76789;DHT22;65740;52.464;13.446;2023-04-25T06:37:23;19.90;43.00
76789;DHT22;65740;52.464;13.446;2023-04-25T06:39:49;19.90;43.00
76789;DHT22;65740;52.464;13.446;2023-04-25T06:42:14;19.90;43.00
76789;DHT22;65740;52.464;13.446;2023-04-25T06:44:40;19.90;43.00
76789;DHT22;65740;52.464;13.446;2023-04-25T06:47:05;19.90;42.90
76789;DHT22;65740;52.464;13.446;2023-04-25T06:49:31;19.90;42.90
76789;DHT22;65740;52.464;13.446;2023-04-25T06:51:57;19.90;42.90
76789;DHT22;65740;52.464;13.446;2023-04-25T06:54:22;19.90;42.90
76789;DHT22;65740;52.464;13.446;2023-04-25T06:56:50;20.00;42.90
76789;DHT22;65740;52.464;13.446;2023-04-25T06:59:15;20.00;42.90
76789;DHT22;65740;52.464;13.446;2023-04-25T07:01:41;20.00;43.00
76789;DHT22;65740;52.464;13.446;2023-04-25T07:04:06;19.90;42.90
76789;DHT22;65740;52.464;13.446;2023-04-25T07:06:32;19.90;42.90
76789;DHT22;65740;52.464;13.446;2023-04-25T07:08:58;19.90;43.50
76789;DHT22;65740;52.464;13.446;2023-04-25T07:11:23;19.90;43.40
76789;DHT22;65740;52.464;13.446;2023-04-25T07:13:49;19.90;43.30
76789;DHT22;65740;52.464;13.446;2023-04-25T07:16:15;19.90;43.20
76789;DHT22;65740;52.464;13.446;2023-04-25T07:18:41;19.90;43.30
76789;DHT22;65740;52.464;13.446;2023-04-25T07:21:06;19.90;43.30
76789;DHT22;65740;52.464;13.446;2023-04-25T07:23:32;19.90;43.40
76789;DHT22;65740;52.464;13.446;2023-04-25T07:25:58;19.90;43.30
76789;DHT22;65740;52.464;13.446;2023-04-25T07:28:23;19.90;43.30
76789;DHT22;65740;52.464;13.446;2023-04-25T07:30:49;19.90;43.40
76789;DHT22;65740;52.464;13.446;2023-04-25T07:33:14;19.90;43.40
76789;DHT22;65740;52.464;13.446;2023-04-25T07:35:40;19.90;43.40
76789;DHT22;65740;52.464;13.446;2023-04-25T07:38:06;19.90;43.40
76789;DHT22;65740;52.464;13.446;2023-04-25T07:40:32;19.90;43.40
76789;DHT22;65740;52.464;13.446;2023-04-25T07:42:57;19.90;43.40
76789;DHT22;65740;52.464;13.446;2023-04-25T07:45:23;19.90;43.40
76789;DHT22;65740;52.464;13.446;2023-04-25T07:47:49;19.90;43.80
76789;DHT22;65740;52.464;13.446;2023-04-25T07:50:15;20.00;44.90
76789;DHT22;65740;52.464;13.446;2023-04-25T07:52:41;20.00;44.80
76789;DHT22;65740;52.464;13.446;2023-04-25T07:55:06;20.00;44.70
76789;DHT22;65740;52.464;13.446;2023-04-25T07:57:32;20.00;44.80
76789;DHT22;65740;52.464;13.446;2023-04-25T07:59:58;20.00;44.60
76789;DHT22;65740;52.464;13.446;2023-04-25T08:02:23;20.00;44.80
76789;DHT22;65740;52.464;13.446;2023-04-25T08:04:51;20.10;44.70
76789;DHT22;65740;52.464;13.446;2023-04-25T08:07:17;20.10;44.70
76789;DHT22;65740;52.464;13.446;2023-04-25T08:09:42;20.10;44.70
76789;DHT22;65740;52.464;13.446;2023-04-25T08:12:08;20.00;44.70
76789;DHT22;65740;52.464;13.446;2023-04-25T08:14:34;20.10;44.80
76789;DHT22;65740;52.464;13.446;2023-04-25T08:17:03;20.10;44.90
76789;DHT22;65740;52.464;13.446;2023-04-25T08:19:29;20.10;45.30
76789;DHT22;65740;52.464;13.446;2023-04-25T08:21:56;20.00;45.00
76789;DHT22;65740;52.464;13.446;2023-04-25T08:24:22;20.00;45.00
76789;DHT22;65740;52.464;13.446;2023-04-25T08:26:48;20.00;45.00
76789;DHT22;65740;52.464;13.446;2023-04-25T08:29:14;20.00;45.00
76789;DHT22;65740;52.464;13.446;2023-04-25T08:31:39;20.00;45.00
76789;DHT22;65740;52.464;13.446;2023-04-25T08:34:05;20.00;45.00
76789;DHT22;65740;52.464;13.446;2023-04-25T08:36:31;20.10;45.50
76789;DHT22;65740;52.464;13.446;2023-04-25T08:38:58;20.10;45.40
76789;DHT22;65740;52.464;13.446;2023-04-25T08:41:24;20.10;45.90
76789;DHT22;65740;52.464;13.446;2023-04-25T08:43:51;20.10;45.40
76789;DHT22;65740;52.464;13.446;2023-04-25T08:46:19;20.10;45.20
76789;DHT22;65740;52.464;13.446;2023-04-25T08:48:45;20.10;45.60
76789;DHT22;65740;52.464;13.446;2023-04-25T08:51:20;20.10;45.40
76789;DHT22;65740;52.464;13.446;2023-04-25T08:53:49;20.10;45.50
76789;DHT22;65740;52.464;13.446;2023-04-25T08:56:16;20.10;45.20
76789;DHT22;65740;52.464;13.446;2023-04-25T08:58:51;20.10;45.30
76789;DHT22;65740;52.464;13.446;2023-04-25T09:01:18;20.10;45.70
76789;DHT22;65740;52.464;13.446;2023-04-25T09:03:44;20.10;45.60
76789;DHT22;65740;52.464;13.446;2023-04-25T09:06:13;20.10;45.60
76789;DHT22;65740;52.464;13.446;2023-04-25T09:08:39;20.10;45.70
76789;DHT22;65740;52.464;13.446;2023-04-25T09:11:06;20.10;45.40
76789;DHT22;65740;52.464;13.446;2023-04-25T09:13:33;20.10;45.30
76789;DHT22;65740;52.464;13.446;2023-04-25T09:15:59;20.10;45.30
76789;DHT22;65740;52.464;13.446;2023-04-25T09:18:33;20.20;45.40
76789;DHT22;65740;52.464;13.446;2023-04-25T09:21:10;20.10;45.40
76789;DHT22;65740;52.464;13.446;2023-04-25T09:23:54;20.20;45.60
76789;DHT22;65740;52.464;13.446;2023-04-25T09:26:21;20.20;45.30
76789;DHT22;65740;52.464;13.446;2023-04-25T09:28:47;20.20;45.20
76789;DHT22;65740;52.464;13.446;2023-04-25T09:31:22;20.30;45.20
76789;DHT22;65740;52.464;13.446;2023-04-25T09:33:49;20.30;45.20
76789;DHT22;65740;52.464;13.446;2023-04-25T09:36:15;20.30;45.20
76789;DHT22;65740;52.464;13.446;2023-04-25T09:38:45;20.40;45.30
76789;DHT22;65740;52.464;13.446;2023-04-25T09:41:11;20.40;45.50
76789;DHT22;65740;52.464;13.446;2023-04-25T09:43:38;20.40;45.60
76789;DHT22;65740;52.464;13.446;2023-04-25T09:46:10;20.40;45.70
76789;DHT22;65740;52.464;13.446;2023-04-25T09:48:38;20.40;45.50
76789;DHT22;65740;52.464;13.446;2023-04-25T09:53:35;20.40;45.40
76789;DHT22;65740;52.464;13.446;2023-04-25T09:56:04;20.50;45.60
76789;DHT22;65740;52.464;13.446;2023-04-25T09:58:34;20.40;45.60
76789;DHT22;65740;52.464;13.446;2023-04-25T10:01:03;20.40;45.70
76789;DHT22;65740;52.464;13.446;2023-04-25T10:03:34;20.50;45.80
76789;DHT22;65740;52.464;13.446;2023-04-25T10:06:02;20.50;46.00
76789;DHT22;65740;52.464;13.446;2023-04-25T10:08:33;20.50;45.90
76789;DHT22;65740;52.464;13.446;2023-04-25T10:11:01;20.50;46.40
76789;DHT22;65740;52.464;13.446;2023-04-25T10:13:29;20.50;46.00
76789;DHT22;65740;52.464;13.446;2023-04-25T10:15:57;20.60;46.20
76789;DHT22;65740;52.464;13.446;2023-04-25T10:18:28;20.60;46.50
76789;DHT22;65740;52.464;13.446;2023-04-25T10:20:55;20.60;46.40
76789;DHT22;65740;52.464;13.446;2023-04-25T10:23:22;20.60;47.00
76789;DHT22;65740;52.464;13.446;2023-04-25T10:25:52;20.60;46.60
76789;DHT22;65740;52.464;13.446;2023-04-25T10:28:19;20.60;46.20
76789;DHT22;65740;52.464;13.446;2023-04-25T10:31:02;20.70;46.30
76789;DHT22;65740;52.464;13.446;2023-04-25T10:33:36;20.70;46.40
76789;DHT22;65740;52.464;13.446;2023-04-25T10:36:10;20.70;46.90
76789;DHT22;65740;52.464;13.446;2023-04-25T10:38:36;20.70;46.30
76789;DHT22;65740;52.464;13.446;2023-04-25T10:41:08;20.80;46.30
76789;DHT22;65740;52.464;13.446;2023-04-25T10:43:42;20.80;46.30
76789;DHT22;65740;52.464;13.446;2023-04-25T10:46:29;20.80;46.10
76789;DHT22;65740;52.464;13.446;2023-04-25T10:48:58;20.80;46.10
76789;DHT22;65740;52.464;13.446;2023-04-25T10:51:31;20.80;46.80
76789;DHT22;65740;52.464;13.446;2023-04-25T10:54:01;20.80;46.20
76789;DHT22;65740;52.464;13.446;2023-04-25T10:56:30;20.80;46.50
76789;DHT22;65740;52.464;13.446;2023-04-25T11:04:24;20.90;46.00
76789;DHT22;65740;52.464;13.446;2023-04-25T11:09:27;20.90;45.90
76789;DHT22;65740;52.464;13.446;2023-04-25T11:11:54;20.90;45.90
76789;DHT22;65740;52.464;13.446;2023-04-25T11:14:21;21.00;45.80
76789;DHT22;65740;52.464;13.446;2023-04-25T11:16:47;21.00;45.80
76789;DHT22;65740;52.464;13.446;2023-04-25T11:19:13;21.10;45.80
76789;DHT22;65740;52.464;13.446;2023-04-25T11:21:39;21.10;45.60
76789;DHT22;65740;52.464;13.446;2023-04-25T11:24:04;21.10;45.70
76789;DHT22;65740;52.464;13.446;2023-04-25T11:26:30;21.10;45.50
76789;DHT22;65740;52.464;13.446;2023-04-25T11:28:59;21.20;46.40
76789;DHT22;65740;52.464;13.446;2023-04-25T11:31:26;21.20;46.40
76789;DHT22;65740;52.464;13.446;2023-04-25T11:33:54;21.20;45.80
76789;DHT22;65740;52.464;13.446;2023-04-25T11:36:20;21.20;45.80
76789;DHT22;65740;52.464;13.446;2023-04-25T11:38:47;21.20;45.80
76789;DHT22;65740;52.464;13.446;2023-04-25T11:41:13;21.20;45.70
76789;DHT22;65740;52.464;13.446;2023-04-25T11:43:38;21.20;45.80
76789;DHT22;65740;52.464;13.446;2023-04-25T11:46:07;21.20;45.50
76789;DHT22;65740;52.464;13.446;2023-04-25T11:48:40;21.20;46.30
76789;DHT22;65740;52.464;13.446;2023-04-25T11:51:06;21.20;45.10
76789;DHT22;65740;52.464;13.446;2023-04-25T11:53:32;21.20;45.30
76789;DHT22;65740;52.464;13.446;2023-04-25T11:55:58;21.20;45.20
76789;DHT22;65740;52.464;13.446;2023-04-25T11:58:25;21.20;45.20
76789;DHT22;65740;52.464;13.446;2023-04-25T12:00:51;21.30;45.10
76789;DHT22;65740;52.464;13.446;2023-04-25T12:03:18;21.30;45.00
76789;DHT22;65740;52.464;13.446;2023-04-25T12:05:45;21.20;44.90
76789;DHT22;65740;52.464;13.446;2023-04-25T12:08:15;21.20;44.50
76789;DHT22;65740;52.464;13.446;2023-04-25T12:10:45;21.20;44.00
76789;DHT22;65740;52.464;13.446;2023-04-25T12:13:21;21.20;43.90
76789;DHT22;65740;52.464;13.446;2023-04-25T12:15:47;21.20;44.30
76789;DHT22;65740;52.464;13.446;2023-04-25T12:18:13;21.20;44.00
76789;DHT22;65740;52.464;13.446;2023-04-25T12:20:39;21.20;43.60
76789;DHT22;65740;52.464;13.446;2023-04-25T12:23:07;21.10;44.00
76789;DHT22;65740;52.464;13.446;2023-04-25T12:25:44;21.10;43.70
76789;DHT22;65740;52.464;13.446;2023-04-25T12:31:00;21.20;43.70
76789;DHT22;65740;52.464;13.446;2023-04-25T12:33:30;21.20;43.70
76789;DHT22;65740;52.464;13.446;2023-04-25T12:35:57;21.20;43.90
76789;DHT22;65740;52.464;13.446;2023-04-25T12:38:27;21.30;44.00
76789;DHT22;65740;52.464;13.446;2023-04-25T12:40:53;21.30;42.30
76789;DHT22;65740;52.464;13.446;2023-04-25T12:43:19;21.30;41.10
76789;DHT22;65740;52.464;13.446;2023-04-25T12:45:50;21.20;40.20
76789;DHT22;65740;52.464;13.446;2023-04-25T12:48:19;21.30;40.60
76789;DHT22;65740;52.464;13.446;2023-04-25T12:50:45;21.20;40.70
76789;DHT22;65740;52.464;13.446;2023-04-25T12:53:14;21.30;40.40
76789;DHT22;65740;52.464;13.446;2023-04-25T12:55:40;21.30;39.40
76789;DHT22;65740;52.464;13.446;2023-04-25T12:58:06;21.20;38.70
76789;DHT22;65740;52.464;13.446;2023-04-25T13:00:33;21.20;38.70
76789;DHT22;65740;52.464;13.446;2023-04-25T13:02:59;21.20;38.60
76789;DHT22;65740;52.464;13.446;2023-04-25T13:05:25;21.10;38.50
76789;DHT22;65740;52.464;13.446;2023-04-25T13:07:51;21.10;38.50
76789;DHT22;65740;52.464;13.446;2023-04-25T13:10:17;21.10;38.50
76789;DHT22;65740;52.464;13.446;2023-04-25T13:12:43;21.10;38.50
76789;DHT22;65740;52.464;13.446;2023-04-25T13:15:09;21.10;38.50
76789;DHT22;65740;52.464;13.446;2023-04-25T13:17:37;21.20;38.60
76789;DHT22;65740;52.464;13.446;2023-04-25T13:20:07;21.10;38.50
76789;DHT22;65740;52.464;13.446;2023-04-25T13:22:35;21.10;38.50
76789;DHT22;65740;52.464;13.446;2023-04-25T13:25:03;21.10;38.50
76789;DHT22;65740;52.464;13.446;2023-04-25T13:27:29;21.00;38.50
76789;DHT22;65740;52.464;13.446;2023-04-25T13:29:55;21.10;38.50
76789;DHT22;65740;52.464;13.446;2023-04-25T13:32:21;21.10;38.60
76789;DHT22;65740;52.464;13.446;2023-04-25T13:34:47;21.10;38.50
76789;DHT22;65740;52.464;13.446;2023-04-25T13:37:12;21.10;38.50
76789;DHT22;65740;52.464;13.446;2023-04-25T13:39:38;21.10;38.50
76789;DHT22;65740;52.464;13.446;2023-04-25T13:42:04;21.10;38.50
76789;DHT22;65740;52.464;13.446;2023-04-25T13:44:30;21.10;38.50
76789;DHT22;65740;52.464;13.446;2023-04-25T13:46:55;21.10;38.50
76789;DHT22;65740;52.464;13.446;2023-04-25T13:49:21;21.10;38.50
76789;DHT22;65740;52.464;13.446;2023-04-25T13:51:48;21.10;38.50
76789;DHT22;65740;52.464;13.446;2023-04-25T13:54:13;21.20;38.60
76789;DHT22;65740;52.464;13.446;2023-04-25T13:56:40;21.20;38.60
76789;DHT22;65740;52.464;13.446;2023-04-25T13:59:07;21.20;38.60
76789;DHT22;65740;52.464;13.446;2023-04-25T14:01:33;21.10;39.20
76789;DHT22;65740;52.464;13.446;2023-04-25T14:04:03;21.10;38.50
76789;DHT22;65740;52.464;13.446;2023-04-25T14:06:30;21.10;38.50
76789;DHT22;65740;52.464;13.446;2023-04-25T14:08:56;21.20;38.20
76789;DHT22;65740;52.464;13.446;2023-04-25T14:11:22;21.20;38.20
76789;DHT22;65740;52.464;13.446;2023-04-25T14:13:47;21.20;38.50
76789;DHT22;65740;52.464;13.446;2023-04-25T14:16:15;21.20;38.60
76789;DHT22;65740;52.464;13.446;2023-04-25T14:18:41;21.10;38.50
76789;DHT22;65740;52.464;13.446;2023-04-25T14:21:07;21.10;38.50
76789;DHT22;65740;52.464;13.446;2023-04-25T14:23:32;21.10;38.50
76789;DHT22;65740;52.464;13.446;2023-04-25T14:25:58;21.10;38.50
76789;DHT22;65740;52.464;13.446;2023-04-25T14:28:23;21.10;38.50
76789;DHT22;65740;52.464;13.446;2023-04-25T14:30:49;21.10;38.50
76789;DHT22;65740;52.464;13.446;2023-04-25T14:33:15;21.00;38.80
76789;DHT22;65740;52.464;13.446;2023-04-25T14:35:41;21.10;38.90
76789;DHT22;65740;52.464;13.446;2023-04-25T14:38:07;21.10;39.20
76789;DHT22;65740;52.464;13.446;2023-04-25T14:40:33;21.00;38.80
76789;DHT22;65740;52.464;13.446;2023-04-25T14:42:58;21.10;39.40
76789;DHT22;65740;52.464;13.446;2023-04-25T14:45:24;21.00;39.30
76789;DHT22;65740;52.464;13.446;2023-04-25T14:47:50;21.10;39.60
76789;DHT22;65740;52.464;13.446;2023-04-25T14:50:16;21.10;39.50
76789;DHT22;65740;52.464;13.446;2023-04-25T14:52:41;21.10;39.70
76789;DHT22;65740;52.464;13.446;2023-04-25T14:55:08;21.10;39.80
76789;DHT22;65740;52.464;13.446;2023-04-25T14:57:34;21.10;39.90
76789;DHT22;65740;52.464;13.446;2023-04-25T15:00:00;21.10;39.90
76789;DHT22;65740;52.464;13.446;2023-04-25T15:02:28;21.10;40.10
76789;DHT22;65740;52.464;13.446;2023-04-25T15:04:54;21.20;39.60
76789;DHT22;65740;52.464;13.446;2023-04-25T15:07:21;21.20;40.10
76789;DHT22;65740;52.464;13.446;2023-04-25T15:09:47;21.10;40.00
76789;DHT22;65740;52.464;13.446;2023-04-25T15:12:13;21.20;40.20
76789;DHT22;65740;52.464;13.446;2023-04-25T15:14:39;21.20;40.50
76789;DHT22;65740;52.464;13.446;2023-04-25T15:17:05;21.20;40.80
76789;DHT22;65740;52.464;13.446;2023-04-25T15:19:30;21.20;40.70
76789;DHT22;65740;52.464;13.446;2023-04-25T15:21:56;21.30;40.90
76789;DHT22;65740;52.464;13.446;2023-04-25T15:24:22;21.30;41.10